sensor_id;sensor_type;location;lat;lon;timestamp;P1;durP1;ratioP1;P2;durP2;ratioP2
54745;SDS011;40640;48.130;11.356;2023-06-10T00:01:26;11.82;;;9.10;;
54745;SDS011;40640;48.130;11.356;2023-06-10T00:05:29;11.65;;;8.05;;
54745;SDS011;40640;48.130;11.356;2023-06-10T00:09:32;8.63;;;7.07;;
54745;SDS011;40640;48.130;11.356;2023-06-10T00:13:37;10.07;;;7.57;;
54745;SDS011;40640;48.130;11.356;2023-06-10T00:17:40;9.65;;;7.60;;
54745;SDS011;40640;48.130;11.356;2023-06-10T00:21:43;13.15;;;7.10;;
54745;SDS011;40640;48.130;11.356;2023-06-10T00:25:46;9.27;;;6.50;;
54745;SDS011;40640;48.130;11.356;2023-06-10T00:29:51;7.88;;;6.15;;
54745;SDS011;40640;48.130;11.356;2023-06-10T00:33:54;7.13;;;5.65;;
54745;SDS011;40640;48.130;11.356;2023-06-10T00:37:58;6.93;;;6.07;;
54745;SDS011;40640;48.130;11.356;2023-06-10T00:42:01;8.32;;;5.70;;
54745;SDS011;40640;48.130;11.356;2023-06-10T00:46:09;7.43;;;5.93;;
54745;SDS011;40640;48.130;11.356;2023-06-10T00:50:13;7.80;;;6.03;;
54745;SDS011;40640;48.130;11.356;2023-06-10T00:54:16;7.35;;;6.15;;
54745;SDS011;40640;48.130;11.356;2023-06-10T00:58:19;9.25;;;6.82;;
54745;SDS011;40640;48.130;11.356;2023-06-10T01:02:24;7.72;;;6.93;;
54745;SDS011;40640;48.130;11.356;2023-06-10T01:06:31;8.95;;;6.78;;
54745;SDS011;40640;48.130;11.356;2023-06-10T01:10:42;9.23;;;7.05;;
54745;SDS011;40640;48.130;11.356;2023-06-10T01:14:47;8.40;;;6.50;;
54745;SDS011;40640;48.130;11.356;2023-06-10T01:18:53;11.30;;;7.10;;
54745;SDS011;40640;48.130;11.356;2023-06-10T01:23:00;8.95;;;6.55;;
54745;SDS011;40640;48.130;11.356;2023-06-10T01:27:05;8.65;;;6.70;;
54745;SDS011;40640;48.130;11.356;2023-06-10T01:31:17;8.82;;;6.50;;
54745;SDS011;40640;48.130;11.356;2023-06-10T01:35:25;9.00;;;6.35;;
54745;SDS011;40640;48.130;11.356;2023-06-10T01:39:31;8.23;;;6.32;;
54745;SDS011;40640;48.130;11.356;2023-06-10T01:43:37;9.05;;;7.20;;
54745;SDS011;40640;48.130;11.356;2023-06-10T01:47:41;11.65;;;7.15;;
54745;SDS011;40640;48.130;11.356;2023-06-10T01:51:44;11.80;;;8.50;;
54745;SDS011;40640;48.130;11.356;2023-06-10T01:55:48;16.88;;;8.88;;
54745;SDS011;40640;48.130;11.356;2023-06-10T01:59:51;10.75;;;8.20;;
54745;SDS011;40640;48.130;11.356;2023-06-10T02:03:54;11.00;;;7.95;;
54745;SDS011;40640;48.130;11.356;2023-06-10T02:07:57;11.10;;;8.60;;
54745;SDS011;40640;48.130;11.356;2023-06-10T02:12:02;12.38;;;8.55;;
54745;SDS011;40640;48.130;11.356;2023-06-10T02:16:06;11.17;;;8.60;;
54745;SDS011;40640;48.130;11.356;2023-06-10T02:20:09;11.85;;;8.63;;
54745;SDS011;40640;48.130;11.356;2023-06-10T02:24:13;11.63;;;8.75;;
54745;SDS011;40640;48.130;11.356;2023-06-10T02:28:17;12.00;;;9.43;;
54745;SDS011;40640;48.130;11.356;2023-06-10T02:32:20;14.05;;;9.27;;
54745;SDS011;40640;48.130;11.356;2023-06-10T02:36:25;13.07;;;8.70;;
54745;SDS011;40640;48.130;11.356;2023-06-10T02:40:29;13.90;;;8.85;;
54745;SDS011;40640;48.130;11.356;2023-06-10T02:44:34;11.18;;;8.40;;
54745;SDS011;40640;48.130;11.356;2023-06-10T02:48:41;9.55;;;8.35;;
54745;SDS011;40640;48.130;11.356;2023-06-10T02:52:48;12.18;;;8.90;;
54745;SDS011;40640;48.130;11.356;2023-06-10T02:56:51;12.82;;;8.98;;
54745;SDS011;40640;48.130;11.356;2023-06-10T03:01:01;10.48;;;8.63;;
54745;SDS011;40640;48.130;11.356;2023-06-10T03:05:15;11.38;;;8.43;;
54745;SDS011;40640;48.130;11.356;2023-06-10T03:09:22;11.85;;;8.75;;
54745;SDS011;40640;48.130;11.356;2023-06-10T03:13:29;11.25;;;8.55;;
54745;SDS011;40640;48.130;11.356;2023-06-10T03:17:37;14.70;;;10.57;;
54745;SDS011;40640;48.130;11.356;2023-06-10T03:21:43;13.80;;;9.45;;
54745;SDS011;40640;48.130;11.356;2023-06-10T03:25:48;16.20;;;10.55;;
54745;SDS011;40640;48.130;11.356;2023-06-10T03:29:53;14.20;;;9.80;;
54745;SDS011;40640;48.130;11.356;2023-06-10T03:33:58;11.75;;;9.80;;
54745;SDS011;40640;48.130;11.356;2023-06-10T03:38:01;12.35;;;9.73;;
54745;SDS011;40640;48.130;11.356;2023-06-10T03:42:05;14.20;;;9.48;;
54745;SDS011;40640;48.130;11.356;2023-06-10T03:46:09;11.98;;;9.25;;
54745;SDS011;40640;48.130;11.356;2023-06-10T03:50:14;10.85;;;9.02;;
54745;SDS011;40640;48.130;11.356;2023-06-10T03:54:19;14.45;;;9.00;;
54745;SDS011;40640;48.130;11.356;2023-06-10T03:58:22;10.52;;;8.50;;
54745;SDS011;40640;48.130;11.356;2023-06-10T04:02:26;10.60;;;8.82;;
54745;SDS011;40640;48.130;11.356;2023-06-10T04:06:31;13.30;;;9.20;;
54745;SDS011;40640;48.130;11.356;2023-06-10T04:10:34;16.60;;;9.65;;
54745;SDS011;40640;48.130;11.356;2023-06-10T04:14:37;12.23;;;9.32;;
54745;SDS011;40640;48.130;11.356;2023-06-10T04:18:44;14.50;;;9.02;;
54745;SDS011;40640;48.130;11.356;2023-06-10T04:22:48;11.65;;;8.35;;
54745;SDS011;40640;48.130;11.356;2023-06-10T04:26:51;11.77;;;9.35;;
54745;SDS011;40640;48.130;11.356;2023-06-10T04:30:54;9.02;;;7.90;;
54745;SDS011;40640;48.130;11.356;2023-06-10T04:34:57;10.85;;;8.43;;
54745;SDS011;40640;48.130;11.356;2023-06-10T04:39:04;11.68;;;9.02;;
54745;SDS011;40640;48.130;11.356;2023-06-10T04:43:10;13.18;;;10.05;;
54745;SDS011;40640;48.130;11.356;2023-06-10T04:47:13;15.13;;;10.15;;
54745;SDS011;40640;48.130;11.356;2023-06-10T04:51:16;17.02;;;9.57;;
54745;SDS011;40640;48.130;11.356;2023-06-10T04:55:20;14.60;;;9.70;;
54745;SDS011;40640;48.130;11.356;2023-06-10T04:59:23;13.68;;;9.88;;
54745;SDS011;40640;48.130;11.356;2023-06-10T05:03:26;12.93;;;9.73;;
54745;SDS011;40640;48.130;11.356;2023-06-10T05:07:29;11.40;;;9.05;;
54745;SDS011;40640;48.130;11.356;2023-06-10T05:11:33;14.23;;;9.55;;
54745;SDS011;40640;48.130;11.356;2023-06-10T05:15:36;16.38;;;9.35;;
54745;SDS011;40640;48.130;11.356;2023-06-10T05:19:39;13.30;;;9.13;;
54745;SDS011;40640;48.130;11.356;2023-06-10T05:23:43;15.32;;;9.80;;
54745;SDS011;40640;48.130;11.356;2023-06-10T05:27:47;10.95;;;9.32;;
54745;SDS011;40640;48.130;11.356;2023-06-10T05:31:50;12.25;;;8.60;;
54745;SDS011;40640;48.130;11.356;2023-06-10T05:35:53;11.52;;;8.13;;
54745;SDS011;40640;48.130;11.356;2023-06-10T05:39:56;9.10;;;7.63;;
54745;SDS011;40640;48.130;11.356;2023-06-10T05:44:00;8.75;;;6.88;;
54745;SDS011;40640;48.130;11.356;2023-06-10T05:48:03;11.73;;;7.57;;
54745;SDS011;40640;48.130;11.356;2023-06-10T05:52:06;7.18;;;6.47;;
54745;SDS011;40640;48.130;11.356;2023-06-10T05:56:09;7.20;;;6.50;;
54745;SDS011;40640;48.130;11.356;2023-06-10T06:00:14;6.85;;;6.05;;
54745;SDS011;40640;48.130;11.356;2023-06-10T06:04:18;7.85;;;5.95;;
54745;SDS011;40640;48.130;11.356;2023-06-10T06:08:21;6.68;;;6.03;;
54745;SDS011;40640;48.130;11.356;2023-06-10T06:12:24;7.25;;;6.45;;
54745;SDS011;40640;48.130;11.356;2023-06-10T06:16:28;9.70;;;6.22;;
54745;SDS011;40640;48.130;11.356;2023-06-10T06:20:31;8.07;;;7.27;;
54745;SDS011;40640;48.130;11.356;2023-06-10T06:24:34;7.63;;;6.50;;
54745;SDS011;40640;48.130;11.356;2023-06-10T06:28:37;8.32;;;6.88;;
54745;SDS011;40640;48.130;11.356;2023-06-10T06:32:41;11.73;;;6.68;;
54745;SDS011;40640;48.130;11.356;2023-06-10T06:36:44;10.25;;;7.38;;
54745;SDS011;40640;48.130;11.356;2023-06-10T06:40:47;8.10;;;7.25;;
54745;SDS011;40640;48.130;11.356;2023-06-10T06:44:50;10.10;;;7.07;;
54745;SDS011;40640;48.130;11.356;2023-06-10T06:48:55;10.07;;;7.07;;
54745;SDS011;40640;48.130;11.356;2023-06-10T06:52:58;8.25;;;6.78;;
54745;SDS011;40640;48.130;11.356;2023-06-10T06:57:01;8.48;;;7.00;;
54745;SDS011;40640;48.130;11.356;2023-06-10T07:01:04;9.18;;;6.95;;
54745;SDS011;40640;48.130;11.356;2023-06-10T07:05:09;8.18;;;6.72;;
54745;SDS011;40640;48.130;11.356;2023-06-10T07:09:12;6.22;;;5.60;;
54745;SDS011;40640;48.130;11.356;2023-06-10T07:13:15;10.27;;;5.72;;
54745;SDS011;40640;48.130;11.356;2023-06-10T07:17:18;9.48;;;6.15;;
54745;SDS011;40640;48.130;11.356;2023-06-10T07:21:23;14.80;;;6.45;;
54745;SDS011;40640;48.130;11.356;2023-06-10T07:25:26;9.88;;;5.97;;
54745;SDS011;40640;48.130;11.356;2023-06-10T07:29:29;5.70;;;5.10;;
54745;SDS011;40640;48.130;11.356;2023-06-10T07:33:32;9.50;;;4.88;;
54745;SDS011;40640;48.130;11.356;2023-06-10T07:37:36;8.48;;;5.20;;
54745;SDS011;40640;48.130;11.356;2023-06-10T07:41:39;5.32;;;4.70;;
54745;SDS011;40640;48.130;11.356;2023-06-10T07:45:42;5.40;;;4.63;;
54745;SDS011;40640;48.130;11.356;2023-06-10T07:49:45;6.13;;;4.18;;
54745;SDS011;40640;48.130;11.356;2023-06-10T07:53:49;9.02;;;3.70;;
54745;SDS011;40640;48.130;11.356;2023-06-10T07:57:52;4.65;;;4.20;;
54745;SDS011;40640;48.130;11.356;2023-06-10T08:01:56;6.03;;;4.30;;
54745;SDS011;40640;48.130;11.356;2023-06-10T08:05:59;4.53;;;3.92;;
54745;SDS011;40640;48.130;11.356;2023-06-10T08:10:04;6.13;;;4.03;;
54745;SDS011;40640;48.130;11.356;2023-06-10T08:14:08;5.30;;;4.00;;
54745;SDS011;40640;48.130;11.356;2023-06-10T08:18:11;10.23;;;4.28;;
54745;SDS011;40640;48.130;11.356;2023-06-10T08:22:14;5.25;;;4.25;;
54745;SDS011;40640;48.130;11.356;2023-06-10T08:26:18;4.03;;;3.60;;
54745;SDS011;40640;48.130;11.356;2023-06-10T08:30:21;7.78;;;4.30;;
54745;SDS011;40640;48.130;11.356;2023-06-10T08:34:24;4.80;;;3.97;;
54745;SDS011;40640;48.130;11.356;2023-06-10T08:38:27;6.88;;;3.70;;
54745;SDS011;40640;48.130;11.356;2023-06-10T08:42:33;4.05;;;3.50;;
54745;SDS011;40640;48.130;11.356;2023-06-10T08:46:38;3.20;;;2.90;;
54745;SDS011;40640;48.130;11.356;2023-06-10T08:50:42;4.78;;;2.90;;
54745;SDS011;40640;48.130;11.356;2023-06-10T08:54:48;3.92;;;3.08;;
54745;SDS011;40640;48.130;11.356;2023-06-10T08:58:54;3.67;;;3.05;;
54745;SDS011;40640;48.130;11.356;2023-06-10T09:02:58;3.05;;;2.60;;
54745;SDS011;40640;48.130;11.356;2023-06-10T09:07:05;3.83;;;3.47;;
54745;SDS011;40640;48.130;11.356;2023-06-10T09:11:09;4.95;;;3.30;;
54745;SDS011;40640;48.130;11.356;2023-06-10T09:15:13;4.55;;;3.50;;
54745;SDS011;40640;48.130;11.356;2023-06-10T09:19:18;5.43;;;3.58;;
54745;SDS011;40640;48.130;11.356;2023-06-10T09:23:22;5.07;;;3.55;;
54745;SDS011;40640;48.130;11.356;2023-06-10T09:27:25;3.80;;;3.40;;
54745;SDS011;40640;48.130;11.356;2023-06-10T09:31:33;6.03;;;3.88;;
54745;SDS011;40640;48.130;11.356;2023-06-10T09:35:44;3.88;;;3.15;;
54745;SDS011;40640;48.130;11.356;2023-06-10T09:40:02;3.63;;;3.33;;
54745;SDS011;40640;48.130;11.356;2023-06-10T09:44:08;5.30;;;4.20;;
54745;SDS011;40640;48.130;11.356;2023-06-10T09:48:15;5.55;;;3.90;;
54745;SDS011;40640;48.130;11.356;2023-06-10T09:52:21;5.82;;;3.88;;
54745;SDS011;40640;48.130;11.356;2023-06-10T09:56:32;3.80;;;3.30;;
54745;SDS011;40640;48.130;11.356;2023-06-10T10:00:36;4.75;;;4.15;;
54745;SDS011;40640;48.130;11.356;2023-06-10T10:04:40;4.95;;;4.03;;
54745;SDS011;40640;48.130;11.356;2023-06-10T10:08:43;7.20;;;4.25;;
54745;SDS011;40640;48.130;11.356;2023-06-10T10:12:48;4.32;;;3.88;;
54745;SDS011;40640;48.130;11.356;2023-06-10T10:16:53;5.13;;;3.88;;
54745;SDS011;40640;48.130;11.356;2023-06-10T10:21:00;4.32;;;3.88;;
54745;SDS011;40640;48.130;11.356;2023-06-10T10:25:07;5.13;;;4.20;;
54745;SDS011;40640;48.130;11.356;2023-06-10T10:29:14;4.30;;;3.90;;
54745;SDS011;40640;48.130;11.356;2023-06-10T10:33:23;4.28;;;3.83;;
54745;SDS011;40640;48.130;11.356;2023-06-10T10:37:35;4.90;;;4.22;;
54745;SDS011;40640;48.130;11.356;2023-06-10T10:41:38;4.00;;;3.60;;
54745;SDS011;40640;48.130;11.356;2023-06-10T10:45:41;5.28;;;3.67;;
54745;SDS011;40640;48.130;11.356;2023-06-10T10:49:44;4.72;;;3.80;;
54745;SDS011;40640;48.130;11.356;2023-06-10T10:54:11;5.45;;;3.78;;
54745;SDS011;40640;48.130;11.356;2023-06-10T10:58:15;3.33;;;3.03;;
54745;SDS011;40640;48.130;11.356;2023-06-10T11:02:18;4.50;;;3.75;;
54745;SDS011;40640;48.130;11.356;2023-06-10T11:06:34;5.03;;;4.03;;
54745;SDS011;40640;48.130;11.356;2023-06-10T11:10:39;3.58;;;3.28;;
54745;SDS011;40640;48.130;11.356;2023-06-10T11:14:43;5.40;;;3.78;;
54745;SDS011;40640;48.130;11.356;2023-06-10T11:18:56;4.97;;;3.67;;
54745;SDS011;40640;48.130;11.356;2023-06-10T11:22:59;3.85;;;3.30;;
54745;SDS011;40640;48.130;11.356;2023-06-10T11:27:18;5.72;;;3.40;;
54745;SDS011;40640;48.130;11.356;2023-06-10T11:31:22;4.40;;;3.60;;
54745;SDS011;40640;48.130;11.356;2023-06-10T11:35:26;4.57;;;3.30;;
54745;SDS011;40640;48.130;11.356;2023-06-10T11:39:29;4.35;;;3.55;;
54745;SDS011;40640;48.130;11.356;2023-06-10T11:43:34;5.40;;;3.72;;
54745;SDS011;40640;48.130;11.356;2023-06-10T11:47:37;3.10;;;2.80;;
54745;SDS011;40640;48.130;11.356;2023-06-10T11:55:50;4.70;;;3.40;;
54745;SDS011;40640;48.130;11.356;2023-06-10T11:59:55;4.07;;;3.78;;
54745;SDS011;40640;48.130;11.356;2023-06-10T12:03:59;4.70;;;4.40;;
54745;SDS011;40640;48.130;11.356;2023-06-10T12:08:09;6.93;;;6.18;;
54745;SDS011;40640;48.130;11.356;2023-06-10T12:12:14;5.47;;;5.18;;
54745;SDS011;40640;48.130;11.356;2023-06-10T12:16:18;5.60;;;5.20;;
54745;SDS011;40640;48.130;11.356;2023-06-10T12:20:24;6.45;;;5.85;;
54745;SDS011;40640;48.130;11.356;2023-06-10T12:24:28;5.45;;;4.57;;
54745;SDS011;40640;48.130;11.356;2023-06-10T12:28:31;5.25;;;4.40;;
54745;SDS011;40640;48.130;11.356;2023-06-10T12:32:36;4.88;;;4.40;;
54745;SDS011;40640;48.130;11.356;2023-06-10T12:36:47;3.38;;;2.97;;
54745;SDS011;40640;48.130;11.356;2023-06-10T12:40:50;3.03;;;2.72;;
54745;SDS011;40640;48.130;11.356;2023-06-10T12:44:54;3.28;;;2.83;;
54745;SDS011;40640;48.130;11.356;2023-06-10T12:48:59;3.00;;;2.80;;
54745;SDS011;40640;48.130;11.356;2023-06-10T12:53:02;2.90;;;2.70;;
54745;SDS011;40640;48.130;11.356;2023-06-10T12:57:06;4.85;;;3.13;;
54745;SDS011;40640;48.130;11.356;2023-06-10T13:01:09;2.75;;;2.50;;
54745;SDS011;40640;48.130;11.356;2023-06-10T13:05:13;3.10;;;2.80;;
54745;SDS011;40640;48.130;11.356;2023-06-10T13:09:17;3.70;;;3.13;;
54745;SDS011;40640;48.130;11.356;2023-06-10T13:13:21;2.53;;;2.33;;
54745;SDS011;40640;48.130;11.356;2023-06-10T13:17:23;2.88;;;2.63;;
54745;SDS011;40640;48.130;11.356;2023-06-10T13:21:28;3.30;;;3.00;;
54745;SDS011;40640;48.130;11.356;2023-06-10T13:25:31;3.20;;;2.92;;
54745;SDS011;40640;48.130;11.356;2023-06-10T13:29:35;5.00;;;2.80;;
54745;SDS011;40640;48.130;11.356;2023-06-10T13:33:37;3.35;;;3.03;;
54745;SDS011;40640;48.130;11.356;2023-06-10T13:37:43;3.43;;;2.73;;
54745;SDS011;40640;48.130;11.356;2023-06-10T13:45:49;3.92;;;3.13;;
54745;SDS011;40640;48.130;11.356;2023-06-10T13:49:51;3.92;;;3.28;;
54745;SDS011;40640;48.130;11.356;2023-06-10T13:53:56;4.30;;;3.90;;
54745;SDS011;40640;48.130;11.356;2023-06-10T13:57:59;8.63;;;4.13;;
54745;SDS011;40640;48.130;11.356;2023-06-10T14:02:02;6.43;;;3.65;;
54745;SDS011;40640;48.130;11.356;2023-06-10T14:06:05;4.78;;;3.30;;
54745;SDS011;40640;48.130;11.356;2023-06-10T14:10:10;5.20;;;3.35;;
54745;SDS011;40640;48.130;11.356;2023-06-10T14:14:13;3.97;;;3.55;;
54745;SDS011;40640;48.130;11.356;2023-06-10T14:18:16;6.78;;;3.33;;
54745;SDS011;40640;48.130;11.356;2023-06-10T14:22:19;5.95;;;3.58;;
54745;SDS011;40640;48.130;11.356;2023-06-10T14:26:23;3.58;;;3.28;;
54745;SDS011;40640;48.130;11.356;2023-06-10T14:30:27;3.40;;;3.03;;
54745;SDS011;40640;48.130;11.356;2023-06-10T14:34:30;5.38;;;3.10;;
54745;SDS011;40640;48.130;11.356;2023-06-10T14:38:35;3.63;;;3.33;;
54745;SDS011;40640;48.130;11.356;2023-06-10T14:42:39;3.30;;;2.78;;
54745;SDS011;40640;48.130;11.356;2023-06-10T14:46:42;3.90;;;2.90;;
54745;SDS011;40640;48.130;11.356;2023-06-10T14:50:45;3.42;;;2.78;;
54745;SDS011;40640;48.130;11.356;2023-06-10T14:54:52;3.17;;;2.83;;
54745;SDS011;40640;48.130;11.356;2023-06-10T14:58:56;3.22;;;2.95;;
54745;SDS011;40640;48.130;11.356;2023-06-10T15:02:59;5.43;;;3.13;;
54745;SDS011;40640;48.130;11.356;2023-06-10T15:07:02;3.38;;;3.08;;
54745;SDS011;40640;48.130;11.356;2023-06-10T15:11:05;3.95;;;3.38;;
54745;SDS011;40640;48.130;11.356;2023-06-10T15:15:09;3.38;;;2.80;;
54745;SDS011;40640;48.130;11.356;2023-06-10T15:19:13;4.65;;;3.28;;
54745;SDS011;40640;48.130;11.356;2023-06-10T15:23:16;3.47;;;2.90;;
54745;SDS011;40640;48.130;11.356;2023-06-10T15:27:19;2.83;;;2.63;;
54745;SDS011;40640;48.130;11.356;2023-06-10T15:31:23;3.70;;;2.55;;
54745;SDS011;40640;48.130;11.356;2023-06-10T15:35:26;5.43;;;2.55;;
54745;SDS011;40640;48.130;11.356;2023-06-10T15:39:29;4.45;;;2.80;;
54745;SDS011;40640;48.130;11.356;2023-06-10T15:43:32;3.25;;;2.78;;
54745;SDS011;40640;48.130;11.356;2023-06-10T15:47:36;2.88;;;2.67;;
54745;SDS011;40640;48.130;11.356;2023-06-10T15:51:42;4.32;;;3.25;;
54745;SDS011;40640;48.130;11.356;2023-06-10T15:55:51;3.65;;;2.75;;
54745;SDS011;40640;48.130;11.356;2023-06-10T15:59:54;4.00;;;3.50;;
54745;SDS011;40640;48.130;11.356;2023-06-10T16:03:58;5.57;;;3.58;;
54745;SDS011;40640;48.130;11.356;2023-06-10T16:08:01;3.60;;;3.30;;
54745;SDS011;40640;48.130;11.356;2023-06-10T16:12:04;3.42;;;3.03;;
54745;SDS011;40640;48.130;11.356;2023-06-10T16:16:08;3.65;;;2.92;;
54745;SDS011;40640;48.130;11.356;2023-06-10T16:20:12;4.43;;;3.13;;
54745;SDS011;40640;48.130;11.356;2023-06-10T16:24:15;4.75;;;3.20;;
54745;SDS011;40640;48.130;11.356;2023-06-10T16:28:18;3.40;;;3.10;;
54745;SDS011;40640;48.130;11.356;2023-06-10T16:32:21;7.05;;;3.45;;
54745;SDS011;40640;48.130;11.356;2023-06-10T16:36:26;6.55;;;3.97;;
54745;SDS011;40640;48.130;11.356;2023-06-10T16:40:29;4.40;;;3.58;;
54745;SDS011;40640;48.130;11.356;2023-06-10T16:44:31;6.32;;;4.40;;
54745;SDS011;40640;48.130;11.356;2023-06-10T16:48:34;4.65;;;3.78;;
54745;SDS011;40640;48.130;11.356;2023-06-10T16:52:39;5.38;;;3.72;;
54745;SDS011;40640;48.130;11.356;2023-06-10T16:56:41;4.40;;;3.97;;
54745;SDS011;40640;48.130;11.356;2023-06-10T17:00:44;4.40;;;4.00;;
54745;SDS011;40640;48.130;11.356;2023-06-10T17:04:47;5.68;;;3.70;;
54745;SDS011;40640;48.130;11.356;2023-06-10T17:08:52;6.40;;;4.20;;
54745;SDS011;40640;48.130;11.356;2023-06-10T17:12:54;5.68;;;4.55;;
54745;SDS011;40640;48.130;11.356;2023-06-10T17:16:57;5.28;;;3.08;;
54745;SDS011;40640;48.130;11.356;2023-06-10T17:21:01;5.13;;;4.50;;
54745;SDS011;40640;48.130;11.356;2023-06-10T17:25:05;4.57;;;3.65;;
54745;SDS011;40640;48.130;11.356;2023-06-10T17:29:09;5.10;;;4.13;;
54745;SDS011;40640;48.130;11.356;2023-06-10T17:33:13;14.10;;;4.60;;
54745;SDS011;40640;48.130;11.356;2023-06-10T17:37:16;5.03;;;4.53;;
54745;SDS011;40640;48.130;11.356;2023-06-10T17:41:20;4.68;;;4.20;;
54745;SDS011;40640;48.130;11.356;2023-06-10T17:45:23;6.28;;;4.78;;
54745;SDS011;40640;48.130;11.356;2023-06-10T17:49:26;4.35;;;3.90;;
54745;SDS011;40640;48.130;11.356;2023-06-10T17:53:33;5.95;;;3.67;;
54745;SDS011;40640;48.130;11.356;2023-06-10T17:57:37;4.65;;;3.53;;
54745;SDS011;40640;48.130;11.356;2023-06-10T18:01:40;3.95;;;3.35;;
54745;SDS011;40640;48.130;11.356;2023-06-10T18:05:43;5.20;;;3.83;;
54745;SDS011;40640;48.130;11.356;2023-06-10T18:09:46;4.18;;;3.78;;
54745;SDS011;40640;48.130;11.356;2023-06-10T18:13:51;8.70;;;3.80;;
54745;SDS011;40640;48.130;11.356;2023-06-10T18:17:54;4.35;;;3.65;;
54745;SDS011;40640;48.130;11.356;2023-06-10T18:21:57;10.15;;;4.55;;
54745;SDS011;40640;48.130;11.356;2023-06-10T18:26:00;5.43;;;4.38;;
54745;SDS011;40640;48.130;11.356;2023-06-10T18:30:05;8.50;;;4.50;;
54745;SDS011;40640;48.130;11.356;2023-06-10T18:34:09;5.07;;;4.20;;
54745;SDS011;40640;48.130;11.356;2023-06-10T18:38:12;8.05;;;4.50;;
54745;SDS011;40640;48.130;11.356;2023-06-10T18:42:14;6.50;;;4.43;;
54745;SDS011;40640;48.130;11.356;2023-06-10T18:46:20;5.88;;;4.60;;
54745;SDS011;40640;48.130;11.356;2023-06-10T18:50:23;8.10;;;4.97;;
54745;SDS011;40640;48.130;11.356;2023-06-10T18:54:26;8.55;;;4.85;;
54745;SDS011;40640;48.130;11.356;2023-06-10T18:58:29;5.47;;;4.60;;
54745;SDS011;40640;48.130;11.356;2023-06-10T19:02:37;5.90;;;4.95;;
54745;SDS011;40640;48.130;11.356;2023-06-10T19:06:40;6.25;;;3.80;;
54745;SDS011;40640;48.130;11.356;2023-06-10T19:10:43;4.40;;;3.95;;
54745;SDS011;40640;48.130;11.356;2023-06-10T19:14:46;7.45;;;3.83;;
54745;SDS011;40640;48.130;11.356;2023-06-10T19:18:50;5.25;;;4.10;;
54745;SDS011;40640;48.130;11.356;2023-06-10T19:22:53;8.20;;;4.13;;
54745;SDS011;40640;48.130;11.356;2023-06-10T19:26:56;5.38;;;4.43;;
54745;SDS011;40640;48.130;11.356;2023-06-10T19:30:59;7.03;;;4.97;;
54745;SDS011;40640;48.130;11.356;2023-06-10T19:35:04;5.90;;;5.13;;
54745;SDS011;40640;48.130;11.356;2023-06-10T19:39:08;6.17;;;5.40;;
54745;SDS011;40640;48.130;11.356;2023-06-10T19:43:11;10.75;;;5.70;;
54745;SDS011;40640;48.130;11.356;2023-06-10T19:47:14;8.15;;;6.20;;
54745;SDS011;40640;48.130;11.356;2023-06-10T19:51:19;7.80;;;5.90;;
54745;SDS011;40640;48.130;11.356;2023-06-10T19:55:22;8.05;;;6.13;;
54745;SDS011;40640;48.130;11.356;2023-06-10T20:04:35;8.90;;;6.03;;
54745;SDS011;40640;48.130;11.356;2023-06-10T20:08:40;6.95;;;5.95;;
54745;SDS011;40640;48.130;11.356;2023-06-10T20:13:01;8.02;;;6.50;;
54745;SDS011;40640;48.130;11.356;2023-06-10T20:17:04;7.80;;;6.28;;
54745;SDS011;40640;48.130;11.356;2023-06-10T20:21:07;8.73;;;6.05;;
54745;SDS011;40640;48.130;11.356;2023-06-10T20:25:12;8.00;;;6.78;;
54745;SDS011;40640;48.130;11.356;2023-06-10T20:29:15;8.60;;;6.93;;
54745;SDS011;40640;48.130;11.356;2023-06-10T20:33:18;9.10;;;7.05;;
54745;SDS011;40640;48.130;11.356;2023-06-10T20:37:22;8.95;;;7.07;;
54745;SDS011;40640;48.130;11.356;2023-06-10T20:41:26;10.10;;;7.78;;
54745;SDS011;40640;48.130;11.356;2023-06-10T20:45:30;9.48;;;7.50;;
54745;SDS011;40640;48.130;11.356;2023-06-10T20:49:32;10.20;;;6.70;;
54745;SDS011;40640;48.130;11.356;2023-06-10T20:53:35;10.10;;;6.47;;
54745;SDS011;40640;48.130;11.356;2023-06-10T20:57:40;8.23;;;5.88;;
54745;SDS011;40640;48.130;11.356;2023-06-10T21:01:43;7.05;;;6.35;;
54745;SDS011;40640;48.130;11.356;2023-06-10T21:05:46;8.18;;;6.50;;
54745;SDS011;40640;48.130;11.356;2023-06-10T21:09:49;11.52;;;6.80;;
54745;SDS011;40640;48.130;11.356;2023-06-10T21:13:53;8.48;;;6.60;;
54745;SDS011;40640;48.130;11.356;2023-06-10T21:17:56;9.45;;;6.40;;
54745;SDS011;40640;48.130;11.356;2023-06-10T21:21:59;9.40;;;6.65;;
54745;SDS011;40640;48.130;11.356;2023-06-10T21:26:05;9.38;;;6.43;;
54745;SDS011;40640;48.130;11.356;2023-06-10T21:30:09;11.50;;;7.65;;
54745;SDS011;40640;48.130;11.356;2023-06-10T21:34:13;12.70;;;8.13;;
54745;SDS011;40640;48.130;11.356;2023-06-10T21:38:16;12.82;;;10.70;;
54745;SDS011;40640;48.130;11.356;2023-06-10T21:42:19;11.02;;;8.75;;
54745;SDS011;40640;48.130;11.356;2023-06-10T21:46:23;8.98;;;6.82;;
54745;SDS011;40640;48.130;11.356;2023-06-10T21:50:27;9.55;;;7.65;;
54745;SDS011;40640;48.130;11.356;2023-06-10T21:54:30;8.68;;;7.30;;
54745;SDS011;40640;48.130;11.356;2023-06-10T21:58:33;9.40;;;7.07;;
54745;SDS011;40640;48.130;11.356;2023-06-10T22:02:38;9.18;;;7.05;;
54745;SDS011;40640;48.130;11.356;2023-06-10T22:06:41;8.30;;;6.72;;
54745;SDS011;40640;48.130;11.356;2023-06-10T22:10:44;8.10;;;7.13;;
54745;SDS011;40640;48.130;11.356;2023-06-10T22:14:47;8.88;;;7.38;;
54745;SDS011;40640;48.130;11.356;2023-06-10T22:18:51;10.85;;;7.07;;
54745;SDS011;40640;48.130;11.356;2023-06-10T22:22:54;9.02;;;6.38;;
54745;SDS011;40640;48.130;11.356;2023-06-10T22:26:57;7.85;;;6.97;;
54745;SDS011;40640;48.130;11.356;2023-06-10T22:31:00;9.52;;;7.18;;
54745;SDS011;40640;48.130;11.356;2023-06-10T22:35:04;8.25;;;7.30;;
54745;SDS011;40640;48.130;11.356;2023-06-10T22:39:08;9.83;;;7.80;;
54745;SDS011;40640;48.130;11.356;2023-06-10T22:43:13;12.25;;;7.95;;
54745;SDS011;40640;48.130;11.356;2023-06-10T22:47:16;9.32;;;7.55;;
54745;SDS011;40640;48.130;11.356;2023-06-10T22:51:21;14.35;;;7.50;;
54745;SDS011;40640;48.130;11.356;2023-06-10T22:55:24;13.50;;;8.15;;
54745;SDS011;40640;48.130;11.356;2023-06-10T22:59:27;9.93;;;7.13;;
54745;SDS011;40640;48.130;11.356;2023-06-10T23:03:30;12.05;;;6.68;;
54745;SDS011;40640;48.130;11.356;2023-06-10T23:07:34;8.75;;;7.53;;
54745;SDS011;40640;48.130;11.356;2023-06-10T23:11:37;8.55;;;6.93;;
54745;SDS011;40640;48.130;11.356;2023-06-10T23:15:40;8.63;;;7.28;;
54745;SDS011;40640;48.130;11.356;2023-06-10T23:19:43;9.70;;;7.15;;
54745;SDS011;40640;48.130;11.356;2023-06-10T23:23:49;10.38;;;7.70;;
54745;SDS011;40640;48.130;11.356;2023-06-10T23:27:53;11.88;;;7.55;;
54745;SDS011;40640;48.130;11.356;2023-06-10T23:31:56;8.80;;;7.30;;
54745;SDS011;40640;48.130;11.356;2023-06-10T23:35:59;7.97;;;7.03;;
54745;SDS011;40640;48.130;11.356;2023-06-10T23:40:04;11.73;;;7.82;;
54745;SDS011;40640;48.130;11.356;2023-06-10T23:44:09;11.45;;;8.13;;
54745;SDS011;40640;48.130;11.356;2023-06-10T23:48:13;9.60;;;8.07;;
54745;SDS011;40640;48.130;11.356;2023-06-10T23:52:16;10.20;;;7.95;;
54745;SDS011;40640;48.130;11.356;2023-06-10T23:56:23;11.38;;;8.10;;
